Time;durP1;ratioP1;P1;durP2;ratioP2;P2;SDS_P1;SDS_P2;PMS_P1;PMS_P2;Temp;Humidity;BMP_temperature;BMP_pressure;BME280_temperature;BME280_humidity;BME280_pressure;Samples;Min_cycle;Max_cycle;Signal;HPM_P1;HPM_P2
2022/11/02 00:01:40;;;;;;;0.10;0.10;;;;;;;12.98;100.00;101393.91;10456094;28;20051;-76
2022/11/02 00:06:43;;;;;;;0.77;0.47;;;;;;;12.87;100.00;101387.59;10457756;28;20047;-77
2022/11/02 00:11:45;;;;;;;0.68;0.55;;;;;;;13.04;100.00;101388.00;10456524;28;20102;-76
2022/11/02 00:16:46;;;;;;;0.00;0.00;;;;;;;12.99;100.00;101381.00;10456822;28;20111;-76
2022/11/02 00:21:48;;;;;;;0.17;0.17;;;;;;;12.99;100.00;101383.56;10472276;28;20076;-78
2022/11/02 00:26:49;;;;;;;0.15;0.08;;;;;;;12.80;100.00;101376.22;10439523;28;20049;-77
2022/11/02 00:31:51;;;;;;;2.55;0.65;;;;;;;12.77;100.00;101373.59;10455504;28;20147;-77
2022/11/02 00:36:53;;;;;;;0.00;0.00;;;;;;;12.73;100.00;101371.75;10455334;28;20071;-77
2022/11/02 00:41:56;;;;;;;0.25;0.00;;;;;;;12.77;100.00;101360.66;10464680;28;20064;-78
2022/11/02 00:46:57;;;;;;;0.10;0.10;;;;;;;12.91;100.00;101364.44;10456605;28;20085;-77
2022/11/02 00:51:59;;;;;;;0.00;0.00;;;;;;;13.00;100.00;101369.81;10471625;28;20052;-77
2022/11/02 00:57:02;;;;;;;0.40;0.22;;;;;;;13.06;100.00;101361.34;10505139;28;20117;-77
2022/11/02 01:02:04;;;;;;;0.00;0.00;;;;;;;13.01;100.00;101356.03;10472342;28;20049;-77
2022/11/02 01:07:06;;;;;;;0.30;0.20;;;;;;;12.98;100.00;101356.00;10454870;28;20037;-77
2022/11/02 01:12:08;;;;;;;0.00;0.00;;;;;;;12.91;100.00;101351.53;10458341;28;20143;-76
2022/11/02 01:17:09;;;;;;;0.00;0.00;;;;;;;12.75;100.00;101360.59;10503696;28;20127;-77
2022/11/02 01:22:11;;;;;;;0.00;0.00;;;;;;;12.97;100.00;101349.06;10487819;28;20056;-76
2022/11/02 01:27:12;;;;;;;0.00;0.00;;;;;;;12.97;100.00;101354.25;10504379;28;20052;-77
2022/11/02 01:32:14;;;;;;;1.17;0.25;;;;;;;13.00;100.00;101356.88;10504049;28;20044;-76
2022/11/02 01:37:15;;;;;;;0.00;0.00;;;;;;;12.89;100.00;101350.59;10476912;28;20067;-76
2022/11/02 01:42:23;;;;;;;1.30;0.08;;;;;;;12.98;100.00;101361.16;10463790;28;20049;-77
2022/11/02 01:47:46;;;;;;;0.00;0.00;;;;;;;12.91;100.00;101358.38;10469858;28;20534;-76
2022/11/02 01:52:48;;;;;;;0.60;0.30;;;;;;;12.84;100.00;101368.59;10473117;28;20090;-77
2022/11/02 01:58:01;;;;;;;0.00;0.00;;;;;;;12.73;100.00;101380.41;10503207;28;20147;-77
2022/11/02 02:03:08;;;;;;;0.28;0.20;;;;;;;12.69;100.00;101384.63;10498251;28;20565;-76
2022/11/02 02:08:14;;;;;;;0.35;0.32;;;;;;;12.66;100.00;101383.63;10461586;28;20045;-78
2022/11/02 02:13:17;;;;;;;0.80;0.80;;;;;;;12.69;100.00;101379.44;10461659;28;20033;-77
2022/11/02 02:18:30;;;;;;;0.38;0.38;;;;;;;12.58;100.00;101390.34;10444393;28;20527;-76
2022/11/02 02:23:47;;;;;;;0.20;0.03;;;;;;;12.59;100.00;101387.78;10460769;28;20515;-77
2022/11/02 02:29:14;;;;;;;0.10;0.10;;;;;;;12.52;100.00;101401.41;10444167;28;20094;-76
2022/11/02 02:34:26;;;;;;;0.45;0.30;;;;;;;12.48;100.00;101402.13;10460628;28;20455;-78
2022/11/02 02:39:42;;;;;;;0.10;0.10;;;;;;;12.31;100.00;101410.34;10502607;28;20040;-77
2022/11/02 02:45:12;;;;;;;1.30;0.63;;;;;;;12.45;100.00;101422.75;10468745;28;20045;-77
2022/11/02 02:50:19;;;;;;;0.10;0.10;;;;;;;12.18;100.00;101426.31;10457671;28;20044;-77
2022/11/02 02:55:25;;;;;;;0.00;0.00;;;;;;;12.01;100.00;101421.56;10459286;28;20063;-78
2022/11/02 03:00:29;;;;;;;0.00;0.00;;;;;;;11.80;100.00;101439.88;10459399;28;20052;-78
2022/11/02 03:05:33;;;;;;;0.00;0.00;;;;;;;11.72;100.00;101419.00;10442708;28;20068;-76
2022/11/02 03:10:58;;;;;;;0.00;0.00;;;;;;;11.72;100.00;101419.00;10442696;28;20045;-77
2022/11/02 03:16:06;;;;;;;0.00;0.00;;;;;;;11.60;100.00;101436.69;10443765;28;20041;-76
2022/11/02 03:21:11;;;;;;;0.00;0.00;;;;;;;11.82;100.00;101438.22;10442089;28;20139;-76
2022/11/02 03:26:13;;;;;;;0.08;0.05;;;;;;;11.84;100.00;101425.34;10458402;28;20041;-77
2022/11/02 03:31:22;;;;;;;0.00;0.00;;;;;;;11.90;100.00;101430.66;10459307;28;20099;-76
2022/11/02 03:36:34;;;;;;;12.80;0.73;;;;;;;11.99;100.00;101435.28;10457236;28;20108;-77
2022/11/02 03:41:39;;;;;;;0.00;0.00;;;;;;;11.88;100.00;101442.66;10441319;28;20064;-76
2022/11/02 03:46:43;;;;;;;0.75;0.30;;;;;;;12.00;100.00;101442.16;10457473;28;20037;-77
2022/11/02 03:51:49;;;;;;;0.28;0.10;;;;;;;11.99;100.00;101443.88;10457318;28;20049;-76
2022/11/02 03:56:57;;;;;;;0.00;0.00;;;;;;;11.89;100.00;101457.31;10457132;28;20044;-76
2022/11/02 04:02:00;;;;;;;0.00;0.00;;;;;;;11.91;100.00;101458.25;10478877;28;20048;-78
2022/11/02 04:07:03;;;;;;;0.68;0.08;;;;;;;11.91;100.00;101464.28;10465969;28;20086;-77
2022/11/02 04:28:18;;;;;;;0.25;0.10;;;;;;;11.40;100.00;101480.81;10416253;28;20041;-76
2022/11/02 04:33:33;;;;;;;2.10;0.10;;;;;;;11.34;100.00;101483.22;10431296;28;20120;-76
2022/11/02 04:38:49;;;;;;;0.00;0.00;;;;;;;11.29;100.00;101492.47;10436772;28;20045;-77
2022/11/02 04:44:06;;;;;;;0.00;0.00;;;;;;;11.42;100.00;101492.06;10455647;28;20404;-76
2022/11/02 04:49:09;;;;;;;0.00;0.00;;;;;;;11.31;100.00;101506.31;10455266;28;20049;-76
2022/11/02 04:54:12;;;;;;;0.20;0.10;;;;;;;11.21;100.00;101510.31;10455151;28;20041;-77
2022/11/02 04:59:14;;;;;;;3.33;0.63;;;;;;;11.28;100.00;101501.06;10455275;28;20091;-76
2022/11/02 05:04:16;;;;;;;0.05;0.00;;;;;;;11.43;100.00;101517.00;10455716;28;20056;-77
2022/11/02 05:09:19;;;;;;;0.00;0.00;;;;;;;11.52;100.00;101521.63;10439149;28;20037;-76
2022/11/02 05:14:22;;;;;;;0.30;0.20;;;;;;;11.70;100.00;101531.63;10456097;28;20045;-76
2022/11/02 05:19:24;;;;;;;0.35;0.10;;;;;;;11.71;100.00;101543.72;10454801;28;20041;-76
2022/11/02 05:24:26;;;;;;;0.00;0.00;;;;;;;11.82;100.00;101546.66;10454916;28;20499;-78
2022/11/02 05:29:28;;;;;;;9.10;2.15;;;;;;;11.87;100.00;101551.94;10440262;28;20049;-76
2022/11/02 05:34:31;;;;;;;0.00;0.00;;;;;;;11.72;100.00;101549.75;10413315;28;20095;-77
2022/11/02 05:39:33;;;;;;;0.35;0.30;;;;;;;11.75;100.00;101558.47;10432923;28;20064;-76
2022/11/02 05:44:35;;;;;;;8.20;0.25;;;;;;;11.80;100.00;101562.91;10455623;28;20076;-76
2022/11/02 05:49:37;;;;;;;0.00;0.00;;;;;;;11.69;100.00;101571.19;10454241;28;20045;-76
2022/11/02 05:54:38;;;;;;;0.32;0.30;;;;;;;11.77;100.00;101557.66;10455082;28;20073;-76
2022/11/02 05:59:40;;;;;;;0.20;0.20;;;;;;;11.75;100.00;101573.97;10455306;28;20131;-77
2022/11/02 06:04:47;;;;;;;0.50;0.10;;;;;;;11.85;100.00;101588.03;10461761;28;20507;-77
2022/11/02 06:09:48;;;;;;;0.20;0.17;;;;;;;11.81;100.00;101593.94;10426620;28;20432;-77
2022/11/02 06:14:50;;;;;;;3.60;0.20;;;;;;;11.75;100.00;101607.50;10420974;28;20068;-77
2022/11/02 06:19:51;;;;;;;0.00;0.00;;;;;;;11.74;100.00;101616.09;10403438;28;20053;-77
2022/11/02 06:24:53;;;;;;;5.05;0.40;;;;;;;11.83;100.00;101624.97;10419608;28;20080;-76
2022/11/02 06:29:54;;;;;;;0.00;0.00;;;;;;;11.81;100.00;101632.66;10451346;28;20052;-75
2022/11/02 06:34:56;;;;;;;0.00;0.00;;;;;;;11.74;100.00;101651.34;10460512;28;20095;-75
2022/11/02 06:39:57;;;;;;;0.10;0.08;;;;;;;11.77;100.00;101658.31;10459791;28;20044;-75
2022/11/02 06:45:01;;;;;;;0.08;0.08;;;;;;;11.82;100.00;101667.09;10461113;28;20045;-76
2022/11/02 06:50:06;;;;;;;3.72;0.35;;;;;;;11.74;100.00;101683.19;10460908;28;20059;-77
2022/11/02 06:55:08;;;;;;;4.57;0.57;;;;;;;11.77;100.00;101691.88;10442815;28;20041;-77
2022/11/02 07:00:12;;;;;;;0.30;0.22;;;;;;;11.80;100.00;101702.31;10462303;28;20068;-76
2022/11/02 07:05:19;;;;;;;0.00;0.00;;;;;;;11.74;100.00;101719.34;10469786;28;20420;-76
2022/11/02 07:10:21;;;;;;;0.05;0.03;;;;;;;11.73;100.00;101732.22;10484417;28;20064;-76
2022/11/02 07:15:24;;;;;;;0.00;0.00;;;;;;;11.69;100.00;101748.44;10482465;28;20443;-77
2022/11/02 07:20:26;;;;;;;2.30;0.50;;;;;;;11.68;100.00;101752.69;10458709;28;20071;-76
2022/11/02 07:25:32;;;;;;;0.00;0.00;;;;;;;11.66;100.00;101766.38;10458234;28;20626;-76
2022/11/02 07:30:33;;;;;;;0.17;0.00;;;;;;;11.61;100.00;101773.94;10458207;28;20107;-75
2022/11/02 07:35:35;;;;;;;1.60;1.00;;;;;;;11.50;100.00;101801.09;10458028;28;20091;-75
2022/11/02 07:40:37;;;;;;;0.68;0.22;;;;;;;11.47;100.00;101811.28;10476852;28;20045;-78
2022/11/02 07:45:39;;;;;;;1.80;0.13;;;;;;;11.53;100.00;101822.72;10457579;28;20488;-77
2022/11/02 07:50:41;;;;;;;0.75;0.17;;;;;;;11.44;100.00;101835.28;10492636;28;20575;-76
2022/11/02 07:55:42;;;;;;;0.82;0.80;;;;;;;11.36;100.00;101836.69;10461630;28;20626;-76
2022/11/02 08:00:44;;;;;;;0.00;0.00;;;;;;;11.77;100.00;101846.78;10457089;28;20056;-76
2022/11/02 08:05:45;;;;;;;0.00;0.00;;;;;;;11.70;100.00;101851.72;10440257;28;20132;-77
2022/11/02 08:10:50;;;;;;;0.17;0.13;;;;;;;11.39;100.00;101855.75;10439828;28;20459;-77
2022/11/02 08:15:53;;;;;;;0.00;0.00;;;;;;;11.75;100.00;101857.94;10451074;28;20144;-77
2022/11/02 08:20:56;;;;;;;0.08;0.00;;;;;;;11.74;100.00;101869.06;10442903;28;20064;-77
2022/11/02 08:25:59;;;;;;;0.00;0.00;;;;;;;11.99;100.00;101879.47;10456574;28;20389;-76
2022/11/02 08:31:01;;;;;;;0.17;0.10;;;;;;;11.74;100.00;101881.13;10454861;28;20041;-77
2022/11/02 08:36:03;;;;;;;0.00;0.00;;;;;;;12.13;100.00;101887.69;10415142;28;20083;-77
2022/11/02 08:41:05;;;;;;;0.43;0.20;;;;;;;11.61;100.00;101887.53;10454038;28;20052;-75
2022/11/02 08:46:06;;;;;;;0.00;0.00;;;;;;;11.53;100.00;101889.81;10455428;28;20467;-76
2022/11/02 08:51:16;;;;;;;0.00;0.00;;;;;;;11.54;100.00;101901.00;10425714;28;20049;-76
2022/11/02 08:56:17;;;;;;;0.28;0.00;;;;;;;12.01;100.00;101904.53;10413998;28;20343;-76
2022/11/02 09:01:19;;;;;;;9.25;0.30;;;;;;;11.65;100.00;101909.16;10448346;28;20497;-76
2022/11/02 09:06:21;;;;;;;1.55;0.20;;;;;;;11.72;100.00;101917.22;10454836;28;20132;-77
2022/11/02 09:11:22;;;;;;;0.10;0.10;;;;;;;11.68;100.00;101929.94;10466313;28;20058;-76
2022/11/02 09:16:24;;;;;;;0.00;0.00;;;;;;;11.68;100.00;101929.94;10479716;28;20049;-77
2022/11/02 09:21:25;;;;;;;0.00;0.00;;;;;;;11.90;100.00;101926.44;10463497;28;20091;-77
2022/11/02 09:26:27;;;;;;;0.73;0.20;;;;;;;11.93;100.00;101926.56;10456020;28;20128;-77
2022/11/02 09:31:29;;;;;;;0.10;0.00;;;;;;;12.60;100.00;101922.06;10455870;28;20507;-77
2022/11/02 09:36:30;;;;;;;0.00;0.00;;;;;;;12.38;100.00;101926.50;10458484;28;20507;-77
2022/11/02 09:41:50;;;;;;;2.55;0.10;;;;;;;12.40;100.00;101938.59;10462307;28;20072;-76
2022/11/02 09:46:52;;;;;;;0.00;0.00;;;;;;;12.75;100.00;101938.91;10462176;28;20053;-76
2022/11/02 09:52:23;;;;;;;1.55;0.22;;;;;;;13.64;100.00;101944.34;10428110;28;20148;-76
2022/11/02 09:57:31;;;;;;;2.25;0.38;;;;;;;12.91;100.00;101941.19;10463096;28;20043;-76
2022/11/02 10:02:38;;;;;;;0.00;0.00;;;;;;;14.09;100.00;101962.91;10464499;28;20037;-76
2022/11/02 10:07:51;;;;;;;0.55;0.45;;;;;;;13.90;100.00;101966.66;10462806;28;20071;-77
2022/11/02 10:12:59;;;;;;;0.15;0.13;;;;;;;13.25;100.00;101975.91;10462539;28;20087;-77
2022/11/02 10:18:03;;;;;;;0.00;0.00;;;;;;;13.27;100.00;101989.78;10462472;28;20051;-77
2022/11/02 10:23:07;;;;;;;0.00;0.00;;;;;;;13.04;100.00;101986.41;10460852;28;20053;-77
2022/11/02 10:28:14;;;;;;;0.00;0.00;;;;;;;13.59;100.00;101986.47;10455137;28;20052;-77
2022/11/02 10:33:19;;;;;;;0.00;0.00;;;;;;;14.56;100.00;101993.56;10484651;28;20044;-76
2022/11/02 10:38:34;;;;;;;0.00;0.00;;;;;;;13.82;100.00;101984.56;10464897;28;20114;-76
2022/11/02 10:43:44;;;;;;;0.00;0.00;;;;;;;14.91;100.00;101991.94;10461855;28;20053;-76
2022/11/02 10:48:52;;;;;;;0.00;0.00;;;;;;;13.98;100.00;101995.38;10461900;28;20056;-75
2022/11/02 11:00:59;;;;;;;0.30;0.08;;;;;;;15.11;100.00;102011.44;10431142;28;20458;-75
2022/11/02 11:06:04;;;;;;;0.15;0.15;;;;;;;14.58;100.00;102012.63;10459615;28;20052;-77
2022/11/02 11:11:21;;;;;;;0.00;0.00;;;;;;;14.78;100.00;102008.00;10459310;28;20063;-75
2022/11/02 11:16:38;;;;;;;0.28;0.13;;;;;;;14.06;100.00;102015.53;10458812;28;20087;-76
2022/11/02 11:21:40;;;;;;;0.60;0.32;;;;;;;14.61;100.00;102017.88;10458968;28;20087;-76
2022/11/02 11:26:42;;;;;;;1.55;1.10;;;;;;;15.03;100.00;102014.72;10459867;28;20131;-75
2022/11/02 11:31:43;;;;;;;0.22;0.10;;;;;;;14.63;100.00;102016.22;10458737;28;20144;-76
2022/11/02 11:36:45;;;;;;;0.00;0.00;;;;;;;14.60;100.00;102026.50;10459323;28;20041;-75
2022/11/02 11:48:00;;;;;;;0.00;0.00;;;;;;;13.88;100.00;102020.13;10458858;28;20084;-75
2022/11/02 11:53:15;;;;;;;0.20;0.00;;;;;;;14.51;100.00;102014.19;10457232;28;20040;-77
2022/11/02 11:58:28;;;;;;;1.65;1.02;;;;;;;15.46;100.00;102014.84;10456560;28;20041;-75
2022/11/02 12:03:30;;;;;;;0.00;0.00;;;;;;;15.35;100.00;102005.97;10456949;28;20067;-75
2022/11/02 12:08:36;;;;;;;0.88;0.20;;;;;;;14.85;100.00;102009.03;10483332;28;20075;-76
2022/11/02 12:13:44;;;;;;;0.38;0.00;;;;;;;15.02;100.00;101996.50;10457394;28;20052;-75
2022/11/02 12:18:54;;;;;;;0.10;0.10;;;;;;;15.50;100.00;101987.25;10457369;28;20092;-75
2022/11/02 12:24:17;;;;;;;0.30;0.30;;;;;;;15.64;100.00;101984.97;10457457;28;20420;-76
2022/11/02 12:29:43;;;;;;;0.30;0.17;;;;;;;15.88;100.00;101981.19;10456097;28;20044;-76
2022/11/02 12:35:04;;;;;;;0.30;0.15;;;;;;;15.57;100.00;101983.06;10457109;28;20037;-76
2022/11/02 12:40:37;;;;;;;0.00;0.00;;;;;;;15.26;99.42;101979.75;10455903;28;20048;-75
2022/11/02 12:45:58;;;;;;;0.00;0.00;;;;;;;15.16;99.22;101976.06;10455359;28;20029;-76
2022/11/02 12:51:23;;;;;;;0.70;0.30;;;;;;;15.39;100.00;101972.31;10456699;28;20128;-74
2022/11/02 13:03:49;;;;;;;0.28;0.08;;;;;;;15.14;100.00;101983.84;10425645;28;20045;-75
2022/11/02 13:09:00;;;;;;;0.30;0.20;;;;;;;15.35;100.00;101975.66;10458007;28;20051;-75
2022/11/02 13:14:08;;;;;;;1.75;0.20;;;;;;;15.11;98.14;101969.91;10447121;28;20087;-76
2022/11/02 13:19:20;;;;;;;0.47;0.47;;;;;;;15.11;97.10;101960.38;10463672;28;20439;-76
2022/11/02 13:24:42;;;;;;;0.32;0.32;;;;;;;15.36;91.35;101959.25;10464326;28;20541;-75
2022/11/02 13:29:49;;;;;;;0.22;0.10;;;;;;;15.44;90.84;101959.44;10464332;28;20133;-75
2022/11/02 13:34:53;;;;;;;0.00;0.00;;;;;;;15.28;93.42;101953.00;10462916;28;20037;-75
2022/11/02 13:40:05;;;;;;;0.10;0.08;;;;;;;15.31;88.48;101954.78;10464089;28;20114;-76
2022/11/02 13:45:35;;;;;;;0.00;0.00;;;;;;;15.28;92.20;101954.72;10462617;28;20411;-76
2022/11/02 13:50:43;;;;;;;0.00;0.00;;;;;;;14.87;99.08;101964.13;10459511;28;20056;-75
2022/11/02 13:55:53;;;;;;;0.05;0.05;;;;;;;14.10;97.95;101962.06;10462151;28;20041;-75
2022/11/02 14:01:00;;;;;;;0.00;0.00;;;;;;;14.68;97.37;101959.31;10463144;28;20072;-75
2022/11/02 14:06:09;;;;;;;0.03;0.03;;;;;;;14.52;100.00;101952.84;10461663;28;20045;-75
2022/11/02 14:11:14;;;;;;;1.80;0.82;;;;;;;14.70;99.91;101942.09;10461716;28;20128;-76
2022/11/02 14:16:49;;;;;;;0.73;0.38;;;;;;;14.20;100.00;101948.50;10461743;28;20156;-76
2022/11/02 14:21:51;;;;;;;0.00;0.00;;;;;;;14.30;100.00;101948.78;10460328;28;20063;-76
2022/11/02 14:26:55;;;;;;;1.10;0.98;;;;;;;14.47;100.00;101946.63;10461992;28;20073;-76
2022/11/02 14:32:02;;;;;;;0.00;0.00;;;;;;;14.39;100.00;101947.31;10460777;28;20132;-75
2022/11/02 14:37:25;;;;;;;1.17;0.32;;;;;;;14.37;100.00;101938.59;10460366;28;20381;-75
2022/11/02 14:42:51;;;;;;;0.00;0.00;;;;;;;14.08;100.00;101937.81;10460362;28;20036;-75
2022/11/02 14:48:02;;;;;;;0.20;0.10;;;;;;;13.80;100.00;101929.28;10460170;28;20064;-74
2022/11/02 14:53:08;;;;;;;0.30;0.17;;;;;;;13.78;100.00;101930.94;10443529;28;20098;-75
2022/11/02 14:58:19;;;;;;;5.25;0.63;;;;;;;13.56;100.00;101924.22;10459768;28;20127;-75
2022/11/02 15:03:23;;;;;;;0.10;0.10;;;;;;;13.37;100.00;101927.94;10460877;28;20039;-75
2022/11/02 15:08:30;;;;;;;0.88;0.75;;;;;;;13.04;100.00;101921.75;10469247;28;20064;-75
2022/11/02 15:13:45;;;;;;;0.00;0.00;;;;;;;12.86;100.00;101924.63;10466836;28;20511;-76
2022/11/02 15:18:47;;;;;;;0.00;0.00;;;;;;;12.70;100.00;101923.25;10459682;28;20075;-76
2022/11/02 15:24:12;;;;;;;0.35;0.35;;;;;;;12.65;100.00;101924.81;10458741;28;20052;-75
2022/11/02 15:29:35;;;;;;;0.43;0.28;;;;;;;12.56;100.00;101914.13;10458720;28;20041;-74
2022/11/02 15:34:44;;;;;;;0.00;0.00;;;;;;;12.27;100.00;101920.06;10458578;28;20053;-75
2022/11/02 15:40:16;;;;;;;0.00;0.00;;;;;;;12.01;100.00;101920.00;10458266;28;20076;-76
2022/11/02 15:45:50;;;;;;;0.10;0.10;;;;;;;11.77;100.00;101913.91;10457906;28;20072;-75
2022/11/02 15:51:39;;;;;;;0.38;0.30;;;;;;;11.51;100.00;101916.38;10458896;28;20041;-74
2022/11/02 15:57:12;;;;;;;0.00;0.00;;;;;;;11.52;100.00;101912.97;10458671;28;20033;-75
2022/11/02 16:02:33;;;;;;;6.97;0.52;;;;;;;11.57;100.00;101912.34;10457943;28;20041;-74
2022/11/02 16:07:55;;;;;;;0.57;0.50;;;;;;;11.48;100.00;101909.41;10458339;28;20120;-75
2022/11/02 16:13:21;;;;;;;0.00;0.00;;;;;;;11.24;100.00;101909.31;10456794;28;20507;-74
2022/11/02 16:18:24;;;;;;;1.17;0.28;;;;;;;11.18;100.00;101911.69;10457174;28;20045;-74
2022/11/02 16:23:30;;;;;;;0.00;0.00;;;;;;;10.92;100.00;101906.34;10456538;28;20095;-73
2022/11/02 16:28:33;;;;;;;0.00;0.00;;;;;;;11.00;100.00;101912.69;10458694;28;20049;-76
2022/11/02 16:33:38;;;;;;;4.13;0.73;;;;;;;10.78;100.00;101921.25;10458367;28;20051;-76
2022/11/02 16:38:47;;;;;;;1.02;0.32;;;;;;;10.76;100.00;101917.72;10457122;28;20041;-76
2022/11/02 16:43:50;;;;;;;1.33;0.30;;;;;;;10.66;100.00;101916.47;10455494;28;20091;-76
2022/11/02 16:49:11;;;;;;;0.00;0.00;;;;;;;10.51;100.00;101920.97;10456943;28;20076;-76
2022/11/02 16:54:31;;;;;;;0.00;0.00;;;;;;;10.57;100.00;101918.66;10456816;28;20127;-77
2022/11/02 16:59:34;;;;;;;0.00;0.00;;;;;;;10.60;100.00;101917.09;10439747;28;20044;-75
2022/11/02 17:04:40;;;;;;;0.17;0.15;;;;;;;10.59;100.00;101904.16;10456466;28;20128;-76
2022/11/02 17:09:42;;;;;;;1.30;0.25;;;;;;;10.48;100.00;101902.00;10457631;28;20547;-76
2022/11/02 17:14:47;;;;;;;0.00;0.00;;;;;;;10.54;100.00;101896.22;10438383;28;20135;-76
2022/11/02 17:19:54;;;;;;;0.45;0.20;;;;;;;10.44;100.00;101905.25;10438445;28;20152;-75
2022/11/02 17:25:17;;;;;;;2.92;0.65;;;;;;;10.52;100.00;101907.28;10439726;28;20045;-76
2022/11/02 17:30:28;;;;;;;0.20;0.10;;;;;;;10.55;100.00;101902.25;10456717;28;20092;-76
2022/11/02 17:35:30;;;;;;;0.85;0.63;;;;;;;10.47;100.00;101897.66;10455306;28;20045;-76
2022/11/02 17:40:31;;;;;;;0.30;0.22;;;;;;;10.46;100.00;101907.91;10457006;28;20388;-76
2022/11/02 17:45:36;;;;;;;0.73;0.20;;;;;;;10.41;100.00;101909.41;10455701;28;20048;-75
2022/11/02 17:50:40;;;;;;;0.20;0.20;;;;;;;10.41;100.00;101910.28;10455694;28;20456;-76
2022/11/02 17:55:41;;;;;;;1.67;0.65;;;;;;;10.27;100.00;101901.03;10456557;28;20072;-76
2022/11/02 18:00:43;;;;;;;0.20;0.13;;;;;;;10.19;100.00;101907.56;10462021;28;20045;-77
2022/11/02 18:05:46;;;;;;;3.35;0.85;;;;;;;10.13;100.00;101898.75;10461963;28;20041;-76
2022/11/02 18:10:52;;;;;;;0.38;0.28;;;;;;;10.08;100.00;101905.41;10461659;28;20052;-75
2022/11/02 18:15:53;;;;;;;0.10;0.00;;;;;;;9.96;100.00;101910.00;10484951;28;20041;-77
2022/11/02 18:20:55;;;;;;;0.00;0.00;;;;;;;9.74;100.00;101900.44;10472583;28;20081;-76
2022/11/02 18:25:57;;;;;;;8.73;2.67;;;;;;;9.79;100.00;101886.94;10462480;28;20036;-76
2022/11/02 18:30:59;;;;;;;1.27;0.30;;;;;;;9.97;100.00;101876.63;10460831;28;20103;-76
2022/11/02 18:36:07;;;;;;;0.13;0.00;;;;;;;10.00;100.00;101873.28;10461799;28;20033;-76
2022/11/02 18:41:28;;;;;;;0.50;0.30;;;;;;;10.11;100.00;101866.91;10460613;28;20080;-76
2022/11/02 18:46:31;;;;;;;0.10;0.05;;;;;;;10.27;100.00;101864.97;10461959;28;20056;-76
2022/11/02 18:51:32;;;;;;;0.60;0.57;;;;;;;10.07;100.00;101867.59;10461216;28;20041;-76
2022/11/02 18:56:34;;;;;;;0.00;0.00;;;;;;;10.16;100.00;101847.38;10460970;28;20076;-76
2022/11/02 19:01:36;;;;;;;0.10;0.10;;;;;;;10.16;100.00;101833.63;10460844;28;20106;-76
2022/11/02 19:12:07;;;;;;;0.35;0.28;;;;;;;10.19;100.00;101809.69;10459155;28;20500;-76
2022/11/02 19:17:10;;;;;;;0.45;0.32;;;;;;;10.13;100.00;101811.19;10460839;28;20065;-76
2022/11/02 19:22:13;;;;;;;0.10;0.10;;;;;;;10.13;100.00;101800.00;10461287;28;20116;-76
2022/11/02 19:27:23;;;;;;;0.00;0.00;;;;;;;10.32;100.00;101786.19;10442042;28;20049;-76
2022/11/02 19:32:24;;;;;;;0.03;0.03;;;;;;;10.05;100.00;101781.66;10459779;28;20076;-76
2022/11/02 19:37:26;;;;;;;0.95;0.30;;;;;;;10.12;100.00;101778.53;10459384;28;20383;-75
2022/11/02 19:42:34;;;;;;;0.00;0.00;;;;;;;10.13;100.00;101767.44;10458020;28;20515;-75
2022/11/02 19:47:36;;;;;;;0.70;0.28;;;;;;;10.33;100.00;101751.91;10457764;28;20049;-75
2022/11/02 19:52:37;;;;;;;0.00;0.00;;;;;;;10.34;100.00;101748.50;10458574;28;20120;-76
2022/11/02 19:57:39;;;;;;;0.00;0.00;;;;;;;10.32;100.00;101750.13;10457342;28;20496;-75
2022/11/02 20:02:40;;;;;;;0.08;0.08;;;;;;;10.38;100.00;101740.16;10457305;28;20098;-76
2022/11/02 20:07:42;;;;;;;0.73;0.40;;;;;;;10.54;100.00;101730.41;10458367;28;20076;-75
2022/11/02 20:12:56;;;;;;;2.60;0.38;;;;;;;10.54;100.00;101710.69;10457927;28;20072;-77
2022/11/02 20:17:57;;;;;;;0.30;0.22;;;;;;;10.67;100.00;101722.38;10456112;28;20488;-75
2022/11/02 20:23:43;;;;;;;0.03;0.03;;;;;;;10.54;100.00;101718.44;10457291;28;20053;-76
2022/11/02 20:28:48;;;;;;;0.13;0.10;;;;;;;10.53;100.00;101719.25;10456223;28;20471;-77
2022/11/02 20:33:50;;;;;;;0.45;0.38;;;;;;;10.66;100.00;101719.72;10458560;28;20080;-76
2022/11/02 20:38:52;;;;;;;0.15;0.15;;;;;;;10.52;100.00;101714.03;10455933;28;20139;-75
2022/11/02 20:43:54;;;;;;;0.13;0.13;;;;;;;10.47;100.00;101714.72;10455855;28;20087;-76
2022/11/02 20:48:56;;;;;;;0.00;0.00;;;;;;;10.51;100.00;101699.41;10455836;28;20068;-76
2022/11/02 20:54:06;;;;;;;0.95;0.55;;;;;;;10.46;100.00;101694.94;10466104;28;20048;-76
2022/11/02 20:59:08;;;;;;;0.10;0.10;;;;;;;10.59;100.00;101690.28;10466085;28;20052;-76
2022/11/02 21:04:10;;;;;;;0.30;0.30;;;;;;;10.63;100.00;101682.72;10457065;28;20068;-75
2022/11/02 21:09:20;;;;;;;0.20;0.20;;;;;;;10.54;100.00;101678.88;10457020;28;20107;-75
2022/11/02 21:14:22;;;;;;;0.47;0.25;;;;;;;10.58;100.00;101681.63;10455898;28;20048;-75
2022/11/02 21:19:23;;;;;;;0.00;0.00;;;;;;;10.45;100.00;101669.13;10455556;28;20079;-76
2022/11/02 21:24:25;;;;;;;2.38;0.47;;;;;;;10.50;100.00;101677.03;10455775;28;20057;-75
2022/11/02 21:29:26;;;;;;;0.05;0.05;;;;;;;10.42;100.00;101684.47;10455827;28;20067;-76
2022/11/02 21:34:28;;;;;;;0.10;0.10;;;;;;;10.43;100.00;101686.19;10446495;28;20147;-76
2022/11/02 21:39:30;;;;;;;0.00;0.00;;;;;;;10.47;100.00;101673.50;10462773;28;20076;-76
2022/11/02 21:44:31;;;;;;;0.00;0.00;;;;;;;10.58;100.00;101670.47;10462801;28;20124;-76
2022/11/02 21:49:33;;;;;;;0.22;0.22;;;;;;;10.37;100.00;101666.25;10462544;28;20087;-76
2022/11/02 21:54:34;;;;;;;0.10;0.10;;;;;;;10.25;100.00;101650.28;10464027;28;20480;-76
2022/11/02 21:59:36;;;;;;;0.28;0.25;;;;;;;10.28;100.00;101647.81;10463238;28;20396;-75
2022/11/02 22:04:37;;;;;;;0.10;0.10;;;;;;;10.31;100.00;101645.38;10463196;28;20041;-76
2022/11/02 22:09:39;;;;;;;0.20;0.13;;;;;;;10.29;100.00;101628.97;10462053;28;20043;-75
2022/11/02 22:14:42;;;;;;;1.45;0.70;;;;;;;10.30;100.00;101628.16;10462798;28;20147;-76
2022/11/02 22:19:44;;;;;;;1.10;1.00;;;;;;;10.19;100.00;101630.31;10461430;28;20048;-75
2022/11/02 22:24:46;;;;;;;0.20;0.17;;;;;;;10.21;100.00;101628.66;10462998;28;20099;-76
2022/11/02 22:36:47;;;;;;;0.52;0.32;;;;;;;10.06;100.00;101618.66;10462315;28;20029;-76
2022/11/02 22:41:49;;;;;;;0.00;0.00;;;;;;;10.06;100.00;101600.63;10461080;28;20049;-76
2022/11/02 22:46:50;;;;;;;0.47;0.30;;;;;;;10.08;100.00;101606.75;10461541;28;20080;-76
2022/11/02 22:51:52;;;;;;;0.10;0.10;;;;;;;10.07;100.00;101594.69;10461763;28;20384;-76
2022/11/02 22:56:54;;;;;;;1.00;0.10;;;;;;;10.06;100.00;101581.72;10461048;28;20102;-75
2022/11/02 23:01:55;;;;;;;0.22;0.20;;;;;;;10.05;100.00;101574.84;10460722;28;20091;-76
2022/11/02 23:06:57;;;;;;;0.00;0.00;;;;;;;10.05;100.00;101555.13;10459558;28;20045;-76
2022/11/02 23:18:03;;;;;;;8.82;1.05;;;;;;;9.90;100.00;101552.84;10460273;28;20045;-76
2022/11/02 23:33:45;;;;;;;0.00;0.00;;;;;;;9.92;100.00;101558.03;10460391;28;20079;-76
2022/11/02 23:44:12;;;;;;;0.32;0.05;;;;;;;9.78;100.00;101550.66;10458120;28;20045;-76
2022/11/02 23:49:17;;;;;;;0.32;0.32;;;;;;;9.74;100.00;101563.34;10459328;28;20040;-76
2022/11/02 23:59:39;;;;;;;0.10;0.10;;;;;;;9.95;100.00;101565.84;10458652;28;20052;-75
